Terminal Aerodrome Forecast
Issued by NWS Grand Forks, ND

Home | Current Version | Previous Version | Text Only | Print | Product List | Glossary On
Versions: 1 2 3 4 5 6 7 8 9 10 11 12 13 14 15 16 17 18 19 20 21
000
FTUS43 KFGF 311121
TAFGFK
TAF
KGFK 311121Z 3112/0112 19013KT P6SM OVC010
      TEMPO 3112/3114 BKN025
     FM311400 19014KT P6SM BKN025
      TEMPO 3114/3116 BKN040
     FM311800 20013KT P6SM SCT060
     FM010500 22007KT P6SM VCSH BKN020=

USA.gov is the U.S. government's official web portal to all federal, state and local government web resources and services.